createdAt,value
2018-04-11T00:00:18.443Z,5.70
2018-04-11T00:01:18.440Z,5.71
2018-04-11T00:02:18.435Z,5.75
2018-04-11T00:03:18.423Z,5.83
2018-04-11T00:04:18.420Z,5.91
2018-04-11T00:05:18.417Z,5.92
2018-04-11T00:06:18.400Z,5.91
2018-04-11T00:07:18.407Z,5.95
2018-04-11T00:08:18.384Z,5.92
2018-04-11T00:09:18.381Z,5.88
2018-04-11T00:10:18.368Z,5.73
2018-04-11T00:11:18.364Z,5.75
2018-04-11T00:12:18.361Z,5.70
2018-04-11T00:13:18.352Z,5.74
2018-04-11T00:14:18.340Z,5.71
2018-04-11T00:15:18.344Z,5.73
2018-04-11T00:16:18.331Z,5.75
2018-04-11T00:17:18.331Z,5.74
2018-04-11T00:18:18.305Z,5.85
2018-04-11T00:19:18.304Z,5.77
2018-04-11T00:20:18.304Z,5.82
2018-04-11T00:21:18.293Z,5.82
2018-04-11T00:22:18.286Z,5.77
2018-04-11T00:23:18.299Z,5.74
2018-04-11T00:24:18.293Z,5.77
2018-04-11T00:25:18.267Z,5.74
2018-04-11T00:26:18.260Z,5.71
2018-04-11T00:27:18.242Z,5.81
2018-04-11T00:28:18.232Z,5.83
2018-04-11T00:29:18.224Z,5.71
2018-04-11T00:30:18.214Z,5.92
2018-04-11T00:31:18.216Z,5.73
2018-04-11T00:32:18.197Z,5.82
2018-04-11T00:33:18.190Z,5.77
2018-04-11T00:34:18.189Z,5.66
2018-04-11T00:35:18.169Z,5.66
2018-04-11T00:36:18.178Z,5.75
2018-04-11T00:37:18.164Z,5.63
2018-04-11T00:38:18.155Z,5.56
2018-04-11T00:39:18.136Z,5.56
2018-04-11T00:40:18.139Z,5.50
2018-04-11T00:41:18.124Z,5.45
2018-04-11T00:42:18.119Z,5.48
2018-04-11T00:43:18.110Z,5.38
2018-04-11T00:44:18.100Z,5.32
2018-04-11T00:45:18.088Z,5.25
2018-04-11T00:46:18.084Z,5.34
2018-04-11T00:47:18.089Z,5.22
2018-04-11T00:48:18.068Z,5.31
2018-04-11T00:49:18.060Z,5.34
2018-04-11T00:50:18.049Z,5.30
2018-04-11T00:51:18.051Z,5.25
2018-04-11T00:52:18.068Z,5.43
2018-04-11T00:53:18.029Z,5.28
2018-04-11T00:54:18.023Z,5.31
2018-04-11T00:55:18.002Z,5.31
2018-04-11T00:56:18.007Z,5.30
2018-04-11T00:57:18.000Z,5.32
2018-04-11T00:58:17.992Z,5.30
2018-04-11T00:59:17.978Z,5.16
2018-04-11T01:00:17.972Z,5.17
2018-04-11T01:01:17.987Z,5.19
2018-04-11T01:02:17.958Z,5.16
2018-04-11T01:03:17.953Z,5.13
2018-04-11T01:04:17.940Z,5.22
2018-04-11T01:05:17.935Z,5.30
2018-04-11T01:06:17.918Z,5.38
2018-04-11T01:07:17.920Z,5.46
2018-04-11T01:08:17.911Z,5.46
2018-04-11T01:09:17.895Z,5.41
2018-04-11T01:10:17.875Z,5.60
2018-04-11T01:11:17.878Z,5.67
2018-04-11T01:12:17.878Z,5.78
2018-04-11T01:13:17.862Z,5.73
2018-04-11T01:14:17.852Z,5.73
2018-04-11T01:15:17.849Z,5.78
2018-04-11T01:16:17.837Z,5.68
2018-04-11T01:17:17.830Z,5.78
2018-04-11T01:18:17.835Z,5.70
2018-04-11T01:19:17.832Z,5.74
2018-04-11T01:20:17.804Z,5.73
2018-04-11T01:21:17.809Z,5.73
2018-04-11T01:22:17.817Z,5.74
2018-04-11T01:23:17.786Z,5.71
2018-04-11T01:24:17.774Z,5.71
2018-04-11T01:25:17.761Z,5.67
2018-04-11T01:26:17.765Z,5.75
2018-04-11T01:27:17.749Z,5.86
2018-04-11T01:28:17.745Z,5.95
2018-04-11T01:29:17.734Z,6.01
2018-04-11T02:01:58.756Z,4.44
2018-04-11T02:02:58.709Z,4.43
2018-04-11T02:04:51.661Z,4.39
2018-04-11T02:05:51.622Z,4.28
2018-04-11T02:07:44.562Z,4.44
2018-04-11T02:08:44.525Z,4.47
2018-04-11T02:10:37.427Z,4.70
2018-04-11T02:11:37.394Z,4.64
2018-04-11T02:13:30.321Z,4.79
2018-04-11T02:14:30.280Z,4.83
2018-04-11T02:16:23.318Z,4.70
2018-04-11T02:17:23.202Z,4.84
2018-04-11T02:19:16.115Z,4.61
2018-04-11T02:20:16.088Z,4.54
2018-04-11T02:22:09.028Z,4.47
2018-04-11T02:23:08.984Z,4.44
2018-04-11T02:25:01.936Z,4.19
2018-04-11T02:26:01.912Z,4.34
2018-04-11T02:27:54.882Z,4.36
2018-04-11T02:28:54.885Z,4.22
2018-04-11T02:30:47.794Z,4.44
2018-04-11T02:31:47.756Z,4.39
2018-04-11T02:33:40.745Z,4.54
2018-04-11T02:34:40.723Z,4.55
2018-04-11T02:36:33.659Z,4.59
2018-04-11T02:37:33.616Z,4.88
2018-04-11T02:39:26.536Z,4.91
2018-04-11T02:40:26.509Z,5.04
2018-04-11T02:42:19.460Z,5.19
2018-04-11T02:43:19.433Z,5.14
2018-04-11T02:45:12.421Z,5.17
2018-04-11T02:46:12.381Z,5.09
2018-04-11T02:48:05.344Z,5.04
2018-04-11T02:49:05.318Z,5.05
2018-04-11T02:50:58.326Z,5.01
2018-04-11T02:51:58.225Z,4.89
2018-04-11T02:53:51.162Z,4.70
2018-04-11T02:54:51.135Z,4.51
2018-04-11T02:56:44.093Z,4.37
2018-04-11T02:57:44.061Z,4.28
2018-04-11T02:59:36.991Z,4.16
2018-04-11T03:00:36.982Z,3.97
2018-04-11T03:02:29.930Z,4.00
2018-04-11T03:03:29.891Z,4.01
2018-04-11T03:05:22.874Z,3.97
2018-04-11T03:06:22.845Z,4.10
2018-04-11T03:08:15.765Z,4.24
2018-04-11T03:09:15.726Z,4.19
2018-04-11T03:11:08.691Z,4.04
2018-04-11T03:12:08.661Z,4.16
2018-04-11T03:14:01.597Z,4.24
2018-04-11T03:15:01.589Z,4.24
2018-04-11T03:16:54.590Z,4.26
2018-04-11T03:17:54.573Z,4.29
2018-04-11T03:19:47.501Z,4.29
2018-04-11T03:20:47.465Z,4.28
2018-04-11T03:22:40.460Z,4.39
2018-04-11T03:23:40.425Z,4.40
2018-04-11T03:25:33.348Z,4.44
2018-04-11T03:26:33.309Z,4.44
2018-04-11T03:28:26.282Z,4.51
2018-04-11T03:29:26.253Z,4.62
2018-04-11T03:31:19.173Z,4.64
2018-04-11T03:32:19.135Z,4.58
2018-04-11T03:34:12.086Z,4.75
2018-04-11T03:35:12.054Z,4.67
2018-04-11T03:37:04.977Z,4.72
2018-04-11T03:38:04.944Z,4.75
2018-04-11T03:39:57.898Z,4.73
2018-04-11T03:40:57.870Z,4.77
2018-04-11T03:42:50.884Z,4.73
2018-04-11T03:43:50.861Z,4.73
2018-04-11T03:45:43.795Z,4.80
2018-04-11T03:46:43.760Z,4.69
2018-04-11T03:48:36.688Z,4.73
2018-04-11T03:49:36.655Z,4.75
2018-04-11T03:51:29.640Z,4.70
2018-04-11T03:52:29.616Z,4.72
2018-04-11T03:54:22.564Z,4.70
2018-04-11T03:55:22.514Z,4.79
2018-04-11T03:57:15.425Z,4.64
2018-04-11T03:58:15.399Z,4.67
2018-04-11T04:00:08.394Z,4.58
2018-04-11T04:01:08.373Z,4.61
2018-04-11T04:03:01.298Z,4.52
2018-04-11T04:04:01.267Z,4.67
2018-04-11T04:05:54.206Z,4.75
2018-04-11T04:06:54.192Z,4.76
2018-04-11T04:08:47.147Z,4.86
2018-04-11T04:09:47.107Z,4.94
2018-04-11T04:11:40.045Z,4.99
2018-04-11T04:12:40.016Z,5.02
2018-04-11T04:14:32.984Z,4.79
2018-04-11T04:15:32.966Z,4.77
2018-04-11T04:17:25.917Z,4.86
2018-04-11T04:18:25.901Z,4.72
2018-04-11T04:20:18.811Z,4.50
2018-04-11T04:21:18.788Z,4.42
2018-04-11T04:23:11.735Z,4.42
2018-04-11T04:24:11.695Z,4.39
2018-04-11T04:26:04.642Z,4.36
2018-04-11T04:27:04.620Z,4.32
2018-04-11T04:28:57.532Z,4.32
2018-04-11T04:29:57.509Z,4.28
2018-04-11T04:31:50.410Z,4.18
2018-04-11T04:32:50.390Z,4.07
2018-04-11T04:34:43.306Z,4.08
2018-04-11T04:35:43.296Z,4.12
2018-04-11T04:37:36.222Z,4.26
2018-04-11T04:38:36.193Z,4.47
2018-04-11T04:40:29.136Z,4.47
2018-04-11T04:41:29.116Z,4.52
2018-04-11T04:43:22.074Z,4.59
2018-04-11T04:44:22.006Z,4.55
2018-04-11T04:46:15.062Z,4.55
2018-04-11T04:47:15.031Z,4.58
2018-04-11T04:49:07.997Z,4.57
2018-04-11T04:50:07.964Z,4.69
2018-04-11T04:52:00.948Z,4.67
2018-04-11T04:53:00.905Z,4.70
2018-04-11T04:54:00.902Z,4.76
2018-04-11T04:55:00.912Z,4.89
2018-04-11T04:56:00.892Z,4.79
2018-04-11T04:57:00.879Z,4.77
2018-04-11T04:58:00.869Z,4.80
2018-04-11T04:59:00.864Z,4.86
2018-04-11T05:00:00.849Z,4.92
2018-04-11T05:01:00.840Z,4.92
2018-04-11T05:02:00.833Z,4.94
2018-04-11T05:03:00.836Z,4.95
2018-04-11T05:04:00.825Z,5.04
2018-04-11T05:05:00.808Z,5.04
2018-04-11T05:06:00.799Z,4.99
2018-04-11T05:07:00.795Z,4.98
2018-04-11T05:08:00.789Z,4.94
2018-04-11T05:09:00.772Z,4.91
2018-04-11T05:10:00.771Z,4.91
2018-04-11T05:11:00.765Z,4.94
2018-04-11T05:12:00.774Z,4.86
2018-04-11T05:13:00.752Z,4.86
2018-04-11T05:14:00.740Z,4.95
2018-04-11T05:15:00.727Z,4.89
2018-04-11T05:16:00.718Z,4.96
2018-04-11T05:17:00.701Z,4.98
2018-04-11T05:18:00.711Z,4.98
2018-04-11T05:19:00.688Z,4.96
2018-04-11T05:20:00.706Z,5.02
2018-04-11T05:21:00.678Z,5.13
2018-04-11T05:22:00.692Z,5.32
2018-04-11T05:23:00.665Z,5.59
2018-04-11T05:24:00.653Z,5.66
2018-04-11T05:25:00.649Z,5.50
2018-04-11T05:26:00.640Z,5.43
2018-04-11T05:27:00.638Z,5.46
2018-04-11T05:28:00.618Z,5.48
2018-04-11T05:29:00.615Z,5.41
2018-04-11T05:30:00.609Z,5.48
2018-04-11T05:31:00.604Z,5.49
2018-04-11T05:32:00.596Z,5.50
2018-04-11T05:33:00.583Z,5.50
2018-04-11T05:34:00.587Z,5.56
2018-04-11T05:35:00.575Z,5.66
2018-04-11T05:36:00.565Z,5.67
2018-04-11T05:37:00.573Z,5.67
2018-04-11T05:38:00.563Z,5.67
2018-04-11T05:39:00.606Z,5.81
2018-04-11T05:40:00.579Z,5.71
2018-04-11T05:41:00.519Z,5.77
2018-04-11T05:42:00.519Z,5.81
2018-04-11T05:43:00.512Z,5.86
2018-04-11T05:44:00.489Z,5.81
2018-04-11T05:45:00.490Z,5.96
2018-04-11T05:46:00.486Z,5.93
2018-04-11T05:47:00.477Z,6.09
2018-04-11T05:48:00.517Z,6.11
2018-04-11T05:49:00.466Z,6.25
2018-04-11T05:50:00.472Z,6.29
2018-04-11T05:51:00.449Z,6.41
2018-04-11T05:52:00.457Z,6.40
2018-04-11T05:53:00.470Z,6.48
2018-04-11T05:54:00.442Z,6.47
2018-04-11T05:55:00.429Z,6.56
2018-04-11T05:56:00.421Z,6.59
2018-04-11T05:57:00.414Z,6.68
2018-04-11T05:58:00.415Z,6.73
2018-04-11T05:59:00.393Z,6.99
2018-04-11T06:00:00.393Z,7.07
2018-04-11T06:01:00.390Z,7.08
2018-04-11T06:02:00.373Z,7.32
2018-04-11T06:03:00.370Z,7.29
2018-04-11T06:04:00.364Z,7.42
2018-04-11T06:05:00.350Z,7.52
2018-04-11T06:06:00.394Z,7.55
2018-04-11T06:07:00.351Z,7.62
2018-04-11T06:08:00.348Z,7.69
2018-04-11T06:09:00.329Z,7.74
2018-04-11T06:10:00.331Z,7.74
2018-04-11T06:11:00.338Z,7.87
2018-04-11T06:12:00.323Z,7.94
2018-04-11T06:13:00.327Z,8.10
2018-04-11T06:14:00.308Z,8.08
2018-04-11T06:15:00.309Z,8.14
2018-04-11T06:16:00.295Z,8.11
2018-04-11T06:17:00.305Z,8.28
2018-04-11T06:18:00.290Z,8.20
2018-04-11T06:19:00.273Z,8.40
2018-04-11T06:20:00.348Z,8.45
2018-04-11T06:21:00.275Z,8.40
2018-04-11T06:22:00.279Z,8.72
2018-04-11T06:23:00.315Z,8.66
2018-04-11T06:24:00.258Z,8.72
2018-04-11T06:25:00.253Z,8.88
2018-04-11T06:26:00.246Z,8.97
2018-04-11T06:27:00.245Z,9.05
2018-04-11T06:28:00.245Z,9.24
2018-04-11T06:29:00.239Z,9.30
2018-04-11T06:30:00.229Z,9.42
2018-04-11T06:31:00.261Z,9.42
2018-04-11T06:32:00.215Z,9.58
2018-04-11T06:33:00.219Z,9.67
2018-04-11T06:34:00.206Z,9.86
2018-04-11T06:35:00.216Z,10.12
2018-04-11T06:36:00.207Z,10.15
2018-04-11T06:37:00.195Z,10.22
2018-04-11T06:38:00.185Z,10.39
2018-04-11T06:39:00.227Z,10.52
2018-04-11T06:40:00.186Z,10.68
2018-04-11T06:41:00.174Z,10.66
2018-04-11T06:42:00.209Z,10.73
2018-04-11T06:43:00.174Z,10.60
2018-04-11T06:44:00.166Z,10.58
2018-04-11T06:45:00.163Z,10.52
2018-04-11T06:46:00.168Z,10.39
2018-04-11T06:47:00.167Z,10.30
2018-04-11T06:48:00.164Z,10.52
2018-04-11T06:49:00.149Z,10.74
2018-04-11T06:50:00.144Z,10.91
2018-04-11T06:51:00.144Z,11.17
2018-04-11T06:52:00.140Z,11.39
2018-04-11T06:53:00.142Z,11.46
2018-04-11T06:54:00.127Z,11.62
2018-04-11T06:55:00.135Z,12.04
2018-04-11T06:56:00.135Z,12.20
2018-04-11T06:57:00.127Z,12.39
2018-04-11T06:58:00.123Z,12.60
2018-04-11T06:59:00.114Z,12.88
2018-04-11T07:00:00.130Z,13.03
2018-04-11T07:01:00.121Z,13.14
2018-04-11T07:02:00.118Z,13.43
2018-04-11T07:03:00.113Z,13.67
2018-04-11T07:04:00.097Z,13.41
2018-04-11T07:05:00.113Z,13.27
2018-04-11T07:06:00.104Z,13.61
2018-04-11T07:07:00.101Z,13.69
2018-04-11T07:08:00.095Z,13.98
2018-04-11T07:09:00.098Z,14.12
2018-04-11T07:10:00.097Z,13.95
2018-04-11T07:11:00.091Z,14.10
2018-04-11T07:12:00.087Z,13.69
2018-04-11T07:13:00.088Z,13.29
2018-04-11T07:14:00.071Z,13.24
2018-04-11T07:15:00.080Z,13.47
2018-04-11T07:16:00.063Z,13.41
2018-04-11T07:17:00.071Z,13.58
2018-04-11T07:18:00.072Z,13.17
2018-04-11T07:19:00.067Z,13.18
2018-04-11T07:20:00.071Z,13.36
2018-04-11T07:21:00.069Z,13.29
2018-04-11T07:22:00.065Z,13.43
2018-04-11T07:23:00.066Z,13.58
2018-04-11T07:24:00.060Z,13.63
2018-04-11T07:25:00.052Z,13.61
2018-04-11T07:26:00.111Z,14.35
2018-04-11T07:27:00.056Z,14.74
2018-04-11T07:28:00.056Z,15.11
2018-04-11T07:29:00.040Z,15.89
2018-04-11T07:30:00.049Z,16.30
2018-04-11T07:31:00.040Z,16.40
2018-04-11T07:32:00.049Z,16.55
2018-04-11T07:33:00.050Z,17.04
2018-04-11T07:34:00.038Z,17.94
2018-04-11T07:35:00.050Z,18.46
2018-04-11T07:36:00.046Z,18.79
2018-04-11T07:37:00.047Z,17.66
2018-04-11T07:38:00.047Z,16.60
2018-04-11T07:39:00.048Z,16.11
2018-04-11T07:40:00.056Z,16.00
2018-04-11T07:41:00.080Z,15.72
2018-04-11T07:42:00.072Z,16.86
2018-04-11T07:43:00.083Z,17.54
2018-04-11T07:44:00.078Z,17.62
2018-04-11T07:45:00.094Z,17.79
2018-04-11T07:46:00.169Z,17.71
2018-04-11T07:47:00.107Z,17.85
2018-04-11T07:48:00.110Z,18.03
2018-04-11T07:49:00.115Z,17.64
2018-04-11T07:50:00.132Z,16.71
2018-04-11T07:51:00.136Z,17.67
2018-04-11T07:52:00.143Z,18.25
2018-04-11T07:53:00.154Z,18.18
2018-04-11T07:54:00.169Z,18.15
2018-04-11T07:55:00.183Z,17.70
2018-04-11T07:56:00.185Z,17.89
2018-04-11T07:57:00.200Z,18.74
2018-04-11T07:58:00.208Z,19.50
2018-04-11T07:59:00.244Z,19.14
2018-04-11T08:00:00.228Z,19.88
2018-04-11T08:01:00.252Z,20.33
2018-04-11T08:02:00.254Z,20.47
2018-04-11T08:03:00.279Z,20.08
2018-04-11T08:04:00.275Z,20.27
2018-04-11T08:05:00.284Z,21.09
2018-04-11T08:06:00.303Z,20.99
2018-04-11T08:07:00.300Z,20.53
2018-04-11T08:08:00.331Z,21.01
2018-04-11T08:09:00.355Z,20.59
2018-04-11T08:10:00.390Z,20.12
2018-04-11T08:11:00.360Z,20.27
2018-04-11T08:12:00.380Z,19.65
2018-04-11T08:13:00.391Z,19.55
2018-04-11T08:14:00.407Z,19.17
2018-04-11T08:15:00.413Z,19.24
2018-04-11T08:16:00.447Z,19.23
2018-04-11T08:17:00.454Z,20.16
2018-04-11T08:18:00.464Z,20.20
2018-04-11T08:19:00.477Z,20.77
2018-04-11T08:20:00.495Z,21.56
2018-04-11T08:21:00.505Z,20.10
2018-04-11T08:22:00.516Z,19.90
2018-04-11T08:23:00.528Z,19.21
2018-04-11T08:24:00.541Z,19.06
2018-04-11T08:25:00.556Z,19.93
2018-04-11T08:26:00.576Z,20.27
2018-04-11T08:27:00.592Z,19.20
2018-04-11T08:28:00.600Z,18.15
2018-04-11T08:29:00.603Z,18.55
2018-04-11T08:30:00.626Z,18.18
2018-04-11T08:31:00.647Z,18.21
2018-04-11T08:32:00.683Z,19.38
2018-04-11T08:33:00.676Z,19.48
2018-04-11T08:34:00.677Z,18.82
2018-04-11T08:35:00.700Z,18.44
2018-04-11T08:36:00.712Z,18.15
2018-04-11T08:37:00.726Z,18.33
2018-04-11T08:38:00.742Z,17.97
2018-04-11T08:39:00.754Z,17.73
2018-04-11T08:40:00.771Z,18.25
2018-04-11T08:41:00.783Z,19.38
2018-04-11T08:42:00.798Z,18.39
2018-04-11T08:43:00.805Z,18.47
2018-04-11T08:44:00.822Z,18.62
2018-04-11T08:45:00.834Z,19.33
2018-04-11T08:46:00.856Z,19.93
2018-04-11T08:47:00.866Z,19.51
2018-04-11T08:48:00.882Z,19.88
2018-04-11T08:49:00.895Z,19.84
2018-04-11T08:50:00.915Z,19.70
2018-04-11T08:51:00.930Z,19.43
2018-04-11T08:52:00.933Z,20.38
2018-04-11T08:53:00.954Z,21.01
2018-04-11T08:54:00.966Z,20.43
2018-04-11T08:55:00.983Z,19.73
2018-04-11T08:56:00.988Z,20.18
2018-04-11T08:57:01.013Z,20.58
2018-04-11T08:58:01.035Z,21.24
2018-04-11T08:59:01.041Z,21.36
2018-04-11T09:00:01.108Z,21.76
2018-04-11T09:01:01.073Z,22.28
2018-04-11T09:02:01.088Z,22.25
2018-04-11T09:03:01.103Z,21.41
2018-04-11T09:04:01.132Z,19.75
2018-04-11T09:05:01.152Z,20.23
2018-04-11T09:06:01.148Z,20.03
2018-04-11T09:07:01.164Z,20.80
2018-04-11T09:08:01.182Z,20.64
2018-04-11T09:09:01.200Z,20.47
2018-04-11T09:10:01.205Z,21.23
2018-04-11T09:11:01.236Z,21.16
2018-04-11T09:12:01.249Z,21.78
2018-04-11T09:13:01.265Z,21.94
2018-04-11T09:14:01.275Z,22.37
2018-04-11T09:15:01.309Z,21.99
2018-04-11T09:16:01.318Z,20.89
2018-04-11T09:17:01.338Z,20.46
2018-04-11T09:18:01.347Z,20.74
2018-04-11T09:19:01.356Z,21.11
2018-04-11T09:20:01.385Z,20.89
2018-04-11T09:21:01.390Z,20.09
2018-04-11T09:22:01.410Z,20.99
2018-04-11T09:23:01.427Z,22.71
2018-04-11T09:24:01.431Z,23.62
2018-04-11T09:25:01.468Z,22.93
2018-04-11T09:26:01.465Z,21.57
2018-04-11T09:27:01.486Z,21.74
2018-04-11T09:28:01.501Z,21.46
2018-04-11T09:29:01.517Z,22.10
2018-04-11T09:30:01.541Z,21.85
2018-04-11T09:31:01.553Z,21.66
2018-04-11T09:32:01.565Z,20.72
2018-04-11T09:33:01.615Z,21.50
2018-04-11T09:34:01.589Z,21.09
2018-04-11T09:35:01.614Z,21.19
2018-04-11T09:36:01.629Z,20.42
2018-04-11T09:37:01.644Z,21.01
2018-04-11T09:38:01.664Z,20.76
2018-04-11T09:39:01.672Z,21.82
2018-04-11T09:40:01.691Z,22.72
2018-04-11T09:41:01.702Z,24.12
2018-04-11T09:42:01.717Z,24.19
2018-04-11T09:43:01.755Z,24.42
2018-04-11T09:44:01.742Z,22.17
2018-04-11T09:45:01.768Z,22.25
2018-04-11T09:46:01.775Z,22.83
2018-04-11T09:47:01.793Z,21.81
2018-04-11T09:48:01.815Z,23.22
2018-04-11T09:49:01.831Z,23.09
2018-04-11T09:50:01.836Z,23.20
2018-04-11T09:51:01.862Z,21.45
2018-04-11T09:52:01.876Z,20.77
2018-04-11T09:53:01.894Z,20.86
2018-04-11T09:54:01.915Z,20.87
2018-04-11T09:55:01.931Z,21.41
2018-04-11T09:56:01.940Z,21.44
2018-04-11T09:57:01.963Z,22.07
2018-04-11T09:58:01.979Z,22.01
2018-04-11T09:59:01.984Z,21.45
2018-04-11T10:00:02.012Z,21.08
2018-04-11T10:01:02.027Z,21.02
2018-04-11T10:02:02.038Z,20.53
2018-04-11T10:03:02.065Z,21.46
2018-04-11T10:04:02.074Z,21.56
2018-04-11T10:05:02.117Z,21.08
2018-04-11T10:06:02.120Z,21.41
2018-04-11T10:07:02.134Z,21.24
2018-04-11T10:08:02.148Z,20.76
2018-04-11T10:09:02.165Z,20.66
2018-04-11T10:10:02.182Z,21.35
2018-04-11T10:11:02.195Z,21.42
2018-04-11T10:12:02.210Z,21.59
2018-04-11T10:13:02.236Z,21.39
2018-04-11T10:14:02.244Z,21.94
2018-04-11T10:15:02.262Z,22.20
2018-04-11T10:16:02.280Z,23.17
2018-04-11T10:17:02.296Z,23.09
2018-04-11T10:18:02.314Z,23.79
2018-04-11T10:19:02.383Z,24.45
2018-04-11T10:20:02.351Z,23.72
2018-04-11T10:21:02.372Z,23.72
2018-04-11T10:22:02.388Z,24.63
2018-04-11T10:23:02.399Z,22.71
2018-04-11T10:24:02.421Z,23.02
2018-04-11T10:25:02.436Z,23.42
2018-04-11T10:26:02.450Z,23.82
2018-04-11T10:27:02.472Z,23.17
2018-04-11T10:28:02.484Z,22.94
2018-04-11T10:29:02.509Z,22.67
2018-04-11T10:30:02.517Z,23.27
2018-04-11T10:31:02.537Z,23.64
2018-04-11T10:32:02.578Z,22.20
2018-04-11T10:33:02.580Z,22.67
2018-04-11T10:34:02.591Z,22.10
2018-04-11T10:35:02.604Z,21.51
2018-04-11T10:36:02.625Z,22.25
2018-04-11T10:37:02.658Z,23.12
2018-04-11T10:38:02.658Z,22.78
2018-04-11T10:39:02.680Z,22.52
2018-04-11T10:40:02.691Z,21.97
2018-04-11T10:41:02.707Z,21.57
2018-04-11T10:42:02.722Z,20.89
2018-04-11T10:43:02.757Z,20.31
2018-04-11T10:44:02.763Z,20.50
2018-04-11T10:45:02.778Z,20.41
2018-04-11T10:46:02.787Z,20.76
2018-04-11T10:47:02.808Z,21.66
2018-04-11T10:48:02.832Z,22.72
2018-04-11T10:49:02.845Z,23.26
2018-04-11T10:50:02.856Z,23.94
2018-04-11T10:51:02.879Z,23.29
2018-04-11T10:52:02.899Z,23.24
2018-04-11T10:53:02.913Z,24.24
2018-04-11T10:54:02.923Z,24.39
2018-04-11T10:55:02.949Z,22.84
2018-04-11T10:56:02.963Z,22.50
2018-04-11T10:57:02.974Z,22.57
2018-04-11T10:58:03.003Z,22.12
2018-04-11T10:59:02.995Z,21.64
2018-04-11T11:00:03.021Z,21.94
2018-04-11T11:01:03.040Z,21.51
2018-04-11T11:02:03.062Z,20.61
2018-04-11T11:03:03.079Z,20.71
2018-04-11T11:04:03.105Z,21.19
2018-04-11T11:05:03.117Z,20.87
2018-04-11T11:06:03.127Z,20.84
2018-04-11T11:07:03.146Z,21.30
2018-04-11T11:08:03.159Z,21.50
2018-04-11T11:09:03.164Z,20.86
2018-04-11T11:10:03.189Z,21.79
2018-04-11T11:11:03.199Z,22.53
2018-04-11T11:12:03.219Z,22.29
2018-04-11T11:13:03.238Z,22.47
2018-04-11T11:14:03.246Z,23.14
2018-04-11T11:15:03.264Z,23.77
2018-04-11T11:16:03.291Z,22.71
2018-04-11T11:17:03.300Z,23.31
2018-04-11T11:18:03.315Z,22.89
2018-04-11T11:19:03.335Z,22.13
2018-04-11T11:20:03.352Z,21.50
2018-04-11T11:21:03.364Z,22.09
2018-04-11T11:22:03.373Z,22.29
2018-04-11T11:23:03.404Z,21.32
2018-04-11T11:24:03.410Z,22.04
2018-04-11T11:25:03.418Z,22.09
2018-04-11T11:26:03.438Z,22.56
2018-04-11T11:27:03.450Z,22.84
2018-04-11T11:28:03.475Z,22.69
2018-04-11T11:29:03.486Z,22.22
2018-04-11T11:30:03.494Z,22.50
2018-04-11T11:31:03.514Z,22.02
2018-04-11T11:32:03.544Z,22.83
2018-04-11T11:33:03.542Z,22.86
2018-04-11T11:34:03.569Z,23.55
2018-04-11T11:35:03.568Z,23.52
2018-04-11T11:36:03.591Z,24.00
2018-04-11T11:37:03.605Z,23.29
2018-04-11T11:38:03.624Z,23.35
2018-04-11T11:39:03.643Z,24.24
2018-04-11T11:40:03.655Z,24.31
2018-04-11T11:41:03.662Z,22.89
2018-04-11T11:42:03.689Z,22.59
2018-04-11T11:43:03.704Z,23.22
2018-04-11T11:44:03.718Z,23.55
2018-04-11T11:45:03.739Z,23.49
2018-04-11T11:46:03.749Z,23.83
2018-04-11T11:47:03.769Z,24.00
2018-04-11T11:48:03.780Z,23.01
2018-04-11T11:49:03.795Z,22.67
2018-04-11T11:50:03.815Z,22.14
2018-04-11T11:51:03.825Z,22.09
2018-04-11T11:52:03.924Z,21.98
2018-04-11T11:53:03.876Z,22.52
2018-04-11T11:54:03.878Z,22.53
2018-04-11T11:55:03.886Z,22.10
2018-04-11T11:56:03.915Z,22.52
2018-04-11T11:57:03.943Z,22.54
2018-04-11T11:58:03.949Z,22.38
2018-04-11T11:59:03.963Z,22.54
2018-04-11T12:00:03.980Z,23.05
2018-04-11T12:01:03.994Z,24.04
2018-04-11T12:02:04.007Z,24.04
2018-04-11T12:03:04.019Z,24.45
2018-04-11T12:04:04.040Z,25.39
2018-04-11T12:05:04.040Z,25.79
2018-04-11T12:06:04.075Z,25.83
2018-04-11T12:07:04.096Z,25.44
2018-04-11T12:08:04.141Z,23.61
2018-04-11T12:09:04.113Z,23.12
2018-04-11T12:10:04.136Z,23.05
2018-04-11T12:11:04.147Z,23.15
2018-04-11T12:12:04.176Z,22.96
2018-04-11T12:13:04.184Z,23.94
2018-04-11T12:14:04.196Z,23.46
2018-04-11T12:15:04.205Z,23.22
2018-04-11T12:16:04.233Z,23.53
2018-04-11T12:17:04.250Z,23.52
2018-04-11T12:18:04.264Z,24.27
2018-04-11T12:19:04.268Z,24.54
2018-04-11T12:20:04.293Z,23.72
2018-04-11T12:21:04.311Z,22.99
2018-04-11T12:22:04.323Z,21.32
2018-04-11T12:23:04.366Z,21.16
2018-04-11T12:24:04.362Z,20.77
2018-04-11T12:25:04.424Z,19.69
2018-04-11T12:26:04.379Z,19.63
2018-04-11T12:27:04.406Z,19.47
2018-04-11T12:28:04.414Z,19.38
2018-04-11T12:29:04.427Z,19.39
2018-04-11T12:30:04.437Z,19.58
2018-04-11T12:31:04.447Z,19.39
2018-04-11T12:32:04.494Z,19.54
2018-04-11T12:33:04.475Z,19.24
2018-04-11T12:34:04.492Z,19.02
2018-04-11T12:35:04.503Z,19.24
2018-04-11T12:36:04.503Z,19.21
2018-04-11T12:37:04.509Z,18.98
2018-04-11T12:38:04.523Z,19.08
2018-04-11T12:39:04.508Z,19.25
2018-04-11T12:40:04.527Z,19.36
2018-04-11T12:41:04.540Z,19.43
2018-04-11T12:42:04.550Z,19.23
2018-04-11T12:43:04.559Z,19.11
2018-04-11T12:44:04.548Z,19.46
2018-04-11T12:45:04.566Z,19.38
2018-04-11T12:46:04.579Z,19.15
2018-04-11T12:47:04.570Z,18.82
2018-04-11T12:48:04.572Z,18.73
2018-04-11T12:49:04.573Z,18.72
2018-04-11T12:50:04.576Z,18.99
2018-04-11T12:51:04.586Z,19.23
2018-04-11T12:52:04.589Z,19.39
2018-04-11T12:53:04.582Z,19.53
2018-04-11T12:54:04.581Z,19.28
2018-04-11T12:55:04.599Z,19.32
2018-04-11T12:56:04.599Z,19.31
2018-04-11T12:57:04.604Z,19.50
2018-04-11T12:58:04.601Z,19.73
2018-04-11T12:59:04.595Z,19.65
2018-04-11T13:00:04.604Z,19.48
2018-04-11T13:01:04.645Z,19.60
2018-04-11T13:02:04.613Z,19.58
2018-04-11T13:03:04.608Z,19.46
2018-04-11T13:04:04.612Z,19.70
2018-04-11T13:05:04.605Z,19.68
2018-04-11T13:06:04.614Z,19.79
2018-04-11T13:07:04.617Z,19.84
2018-04-11T13:08:04.621Z,19.68
2018-04-11T13:09:04.622Z,19.36
2018-04-11T13:10:04.621Z,19.25
2018-04-11T13:11:04.617Z,19.46
2018-04-11T13:12:04.616Z,19.57
2018-04-11T13:13:04.623Z,19.42
2018-04-11T13:14:04.622Z,19.50
2018-04-11T13:15:04.625Z,19.20
2018-04-11T13:16:04.618Z,18.91
2018-04-11T13:17:04.626Z,18.98
2018-04-11T13:18:04.622Z,18.99
2018-04-11T13:19:04.619Z,18.62
2018-04-11T13:20:04.621Z,18.47
2018-04-11T13:21:04.628Z,18.68
2018-04-11T13:22:04.662Z,18.68
2018-04-11T13:23:04.631Z,18.68
2018-04-11T13:24:04.627Z,18.82
2018-04-11T13:25:04.632Z,18.77
2018-04-11T13:26:04.633Z,19.01
2018-04-11T13:27:04.631Z,19.23
2018-04-11T13:28:04.643Z,19.42
2018-04-11T13:29:04.622Z,19.25
2018-04-11T13:30:04.638Z,19.18
2018-04-11T13:31:04.634Z,18.83
2018-04-11T13:32:04.630Z,18.82
2018-04-11T13:33:04.636Z,19.20
2018-04-11T13:34:04.633Z,19.01
2018-04-11T13:35:04.662Z,18.91
2018-04-11T13:36:04.643Z,18.84
2018-04-11T13:37:04.644Z,18.84
2018-04-11T13:38:04.649Z,18.90
2018-04-11T13:39:04.635Z,18.90
2018-04-11T13:40:04.640Z,18.90
2018-04-11T13:41:04.636Z,18.87
2018-04-11T13:42:04.637Z,19.20
2018-04-11T13:43:04.635Z,19.17
2018-04-11T13:44:04.631Z,18.94
2018-04-11T13:45:04.639Z,18.91
2018-04-11T13:46:04.641Z,18.72
2018-04-11T13:47:04.646Z,18.82
2018-04-11T13:48:04.643Z,18.76
2018-04-11T13:49:04.631Z,18.79
2018-04-11T13:50:04.639Z,18.86
2018-04-11T13:51:04.638Z,18.61
2018-04-11T13:52:04.644Z,18.73
2018-04-11T13:53:04.645Z,18.65
2018-04-11T13:54:04.627Z,18.82
2018-04-11T13:55:04.639Z,18.72
2018-04-11T13:56:04.641Z,18.68
2018-04-11T13:57:04.642Z,18.72
2018-04-11T13:58:04.646Z,18.65
2018-04-11T13:59:04.637Z,18.80
2018-04-11T14:00:04.642Z,18.82
2018-04-11T14:01:04.646Z,18.84
2018-04-11T14:02:04.640Z,18.72
2018-04-11T14:03:04.646Z,18.73
2018-04-11T14:04:04.638Z,18.62
2018-04-11T14:05:04.647Z,18.77
2018-04-11T14:06:04.646Z,18.65
2018-04-11T14:07:04.641Z,18.67
2018-04-11T14:08:04.637Z,18.82
2018-04-11T14:09:04.643Z,18.64
2018-04-11T14:10:04.648Z,18.65
2018-04-11T14:11:04.651Z,18.55
2018-04-11T14:12:04.643Z,18.62
2018-04-11T14:13:04.652Z,18.73
2018-04-11T14:14:04.640Z,19.02
2018-04-11T14:15:04.650Z,19.18
2018-04-11T14:16:04.648Z,19.23
2018-04-11T14:17:04.659Z,19.33
2018-04-11T14:18:04.646Z,19.40
2018-04-11T14:19:04.649Z,19.28
2018-04-11T14:20:04.643Z,19.25
2018-04-11T14:21:04.653Z,19.15
2018-04-11T14:22:04.658Z,19.05
2018-04-11T14:23:04.657Z,19.14
2018-04-11T14:24:04.674Z,19.08
2018-04-11T14:25:04.651Z,19.13
2018-04-11T14:26:04.655Z,18.94